createdAt,value
2023-04-15T00:00:18.001Z,89.44
2023-04-15T00:03:22.999Z,89.45
2023-04-15T00:06:26.510Z,89.32
2023-04-15T00:09:29.050Z,88.75
2023-04-15T00:12:31.834Z,88.83
2023-04-15T00:15:34.313Z,88.85
2023-04-15T00:18:37.687Z,88.84
2023-04-15T00:21:40.201Z,88.64
2023-04-15T00:24:43.087Z,88.34
2023-04-15T00:27:45.547Z,88.76
2023-04-15T00:30:50.749Z,88.58
2023-04-15T00:33:53.339Z,88.22
2023-04-15T00:36:58.501Z,88.29
2023-04-15T00:40:01.583Z,88.69
2023-04-15T00:43:04.463Z,88.55
2023-04-15T00:46:07.980Z,88.54
2023-04-15T00:49:11.314Z,88.53
2023-04-15T00:52:14.520Z,89.43
2023-04-15T00:55:17.083Z,89.10
2023-04-15T00:58:19.729Z,88.45
2023-04-15T01:01:24.956Z,88.44
2023-04-15T01:04:27.902Z,89.31
2023-04-15T01:07:32.002Z,89.02
2023-04-15T01:10:35.443Z,88.38
2023-04-15T01:13:38.152Z,88.41
2023-04-15T01:16:41.156Z,88.28
2023-04-15T01:19:43.955Z,88.66
2023-04-15T01:22:47.038Z,88.55
2023-04-15T01:25:51.615Z,87.86
2023-04-15T01:28:54.895Z,87.74
2023-04-15T01:31:57.717Z,88.15
2023-04-15T01:35:03.223Z,87.91
2023-04-15T01:38:07.828Z,87.61
2023-04-15T01:41:10.404Z,87.56
2023-04-15T01:44:12.931Z,87.43
2023-04-15T01:47:16.074Z,88.74
2023-04-15T01:50:19.138Z,88.61
2023-04-15T01:53:21.672Z,88.42
2023-04-15T01:56:26.915Z,87.79
2023-04-15T01:59:31.397Z,88.02
2023-04-15T02:02:35.062Z,88.17
2023-04-15T02:05:37.679Z,87.38
2023-04-15T02:08:40.131Z,87.70
2023-04-15T02:11:43.946Z,88.48
2023-04-15T02:14:46.473Z,87.99
2023-04-15T02:17:51.218Z,88.47
2023-04-15T02:20:53.904Z,87.79
2023-04-15T02:23:57.198Z,88.01
2023-04-15T02:26:59.721Z,88.01
2023-04-15T02:30:03.274Z,88.58
2023-04-15T02:33:05.886Z,89.09
2023-04-15T02:36:09.548Z,88.76
2023-04-15T02:39:12.958Z,88.87
2023-04-15T02:42:15.463Z,88.93
2023-04-15T02:45:19.696Z,87.33
2023-04-15T02:48:22.914Z,87.47
2023-04-15T02:51:26.067Z,87.23
2023-04-15T02:54:28.937Z,88.21
2023-04-15T02:57:32.222Z,88.14
2023-04-15T03:00:40.561Z,88.84
2023-04-15T03:03:43.102Z,88.83
2023-04-15T03:06:46.945Z,89.09
2023-04-15T03:09:49.960Z,89.82
2023-04-15T03:12:53.231Z,89.56
2023-04-15T03:15:57.686Z,89.34
2023-04-15T03:19:00.630Z,88.71
2023-04-15T03:22:04.184Z,89.07
2023-04-15T03:25:07.015Z,89.35
2023-04-15T03:28:09.583Z,90.01
2023-04-15T03:31:12.370Z,89.39
2023-04-15T03:34:14.902Z,89.79
2023-04-15T03:37:17.409Z,89.70
2023-04-15T03:40:21.845Z,90.10
2023-04-15T03:43:24.417Z,89.55
2023-04-15T03:46:27.082Z,89.72
2023-04-15T03:49:29.565Z,90.50
2023-04-15T03:52:32.033Z,90.71
2023-04-15T03:55:34.460Z,90.11
2023-04-15T03:58:37.003Z,90.07
2023-04-15T04:01:39.499Z,89.84
2023-04-15T04:04:42.261Z,89.70
2023-04-15T04:07:45.086Z,89.64
2023-04-15T04:10:48.056Z,89.53
2023-04-15T04:13:50.718Z,89.42
2023-04-15T04:16:53.381Z,88.99
2023-04-15T04:19:56.206Z,89.74
2023-04-15T04:22:58.899Z,89.00
2023-04-15T04:26:01.528Z,89.09
2023-04-15T04:29:04.460Z,88.47
2023-04-15T04:32:07.157Z,87.78
2023-04-15T04:35:09.711Z,88.72
2023-04-15T04:38:12.240Z,88.94
2023-04-15T04:41:14.710Z,89.73
2023-04-15T04:44:17.771Z,90.00
2023-04-15T04:47:20.816Z,89.38
2023-04-15T04:50:23.559Z,89.13
2023-04-15T04:53:26.586Z,89.18
2023-04-15T04:56:29.110Z,89.51
2023-04-15T04:59:31.786Z,88.87
2023-04-15T05:02:35.370Z,88.80
2023-04-15T05:05:39.596Z,88.60
2023-04-15T05:08:42.280Z,87.56
2023-04-15T05:11:44.735Z,86.88
2023-04-15T05:14:47.569Z,86.32
2023-04-15T05:17:50.155Z,85.69
2023-04-15T05:20:52.728Z,85.80
2023-04-15T05:23:55.283Z,85.29
2023-04-15T05:26:57.858Z,84.91
2023-04-15T05:30:00.581Z,85.41
2023-04-15T05:33:03.994Z,84.19
2023-04-15T05:36:06.725Z,83.84
2023-04-15T05:39:09.729Z,84.25
2023-04-15T05:42:12.241Z,83.13
2023-04-15T05:45:14.824Z,83.37
2023-04-15T05:48:17.336Z,81.97
2023-04-15T05:51:19.990Z,82.09
2023-04-15T05:54:23.343Z,82.02
2023-04-15T05:57:25.876Z,82.06
2023-04-15T06:00:28.476Z,81.73
2023-04-15T06:03:31.209Z,82.02
2023-04-15T06:06:34.750Z,81.08
2023-04-15T06:09:38.116Z,81.54
2023-04-15T06:12:40.614Z,81.52
2023-04-15T06:15:43.332Z,81.50
2023-04-15T06:18:46.065Z,82.39
2023-04-15T06:21:49.357Z,81.91
2023-04-15T06:24:52.067Z,81.99
2023-04-15T06:27:54.515Z,81.00
2023-04-15T06:30:56.966Z,81.89
2023-04-15T06:33:59.398Z,81.12
2023-04-15T06:37:02.646Z,81.14
2023-04-15T06:40:08.570Z,80.60
2023-04-15T06:43:11.097Z,81.36
2023-04-15T06:46:13.773Z,80.57
2023-04-15T06:49:16.533Z,80.75
2023-04-15T06:52:19.487Z,80.34
2023-04-15T06:55:22.810Z,81.57
2023-04-15T06:58:25.391Z,79.99
2023-04-15T07:01:28.524Z,79.25
2023-04-15T07:04:32.962Z,78.93
2023-04-15T07:07:36.330Z,78.14
2023-04-15T07:10:38.861Z,79.31
2023-04-15T07:13:41.397Z,78.25
2023-04-15T07:16:43.884Z,77.91
2023-04-15T07:19:46.491Z,77.49
2023-04-15T07:22:49.867Z,77.38
2023-04-15T07:25:53.186Z,76.82
2023-04-15T07:28:55.711Z,76.63
2023-04-15T07:31:58.252Z,74.66
2023-04-15T07:35:02.291Z,74.66
2023-04-15T07:38:04.920Z,73.79
2023-04-15T07:41:07.500Z,73.08
2023-04-15T07:44:10.550Z,75.39
2023-04-15T07:47:14.252Z,74.74
2023-04-15T07:50:17.568Z,73.85
2023-04-15T07:53:20.842Z,74.30
2023-04-15T07:56:23.422Z,74.90
2023-04-15T07:59:30.081Z,75.50
2023-04-15T08:02:33.487Z,75.47
2023-04-15T08:05:36.198Z,74.76
2023-04-15T08:08:38.703Z,73.38
2023-04-15T08:11:41.717Z,72.02
2023-04-15T08:14:44.413Z,72.52
2023-04-15T08:17:47.248Z,70.89
2023-04-15T08:20:49.805Z,70.90
2023-04-15T08:23:53.529Z,71.14
2023-04-15T08:26:57.700Z,69.67
2023-04-15T08:30:02.130Z,69.05
2023-04-15T08:33:07.265Z,68.92
2023-04-15T08:36:10.129Z,68.89
2023-04-15T08:39:12.822Z,66.21
2023-04-15T08:42:23.540Z,66.87
2023-04-15T08:45:26.398Z,63.65
2023-04-15T08:48:32.639Z,65.87
2023-04-15T08:51:35.623Z,62.55
2023-04-15T08:54:38.832Z,63.46
2023-04-15T08:57:41.614Z,61.00
2023-04-15T09:00:44.276Z,59.86
2023-04-15T09:03:50.556Z,58.91
2023-04-15T09:06:53.183Z,57.78
2023-04-15T09:09:55.906Z,59.42
2023-04-15T09:12:58.915Z,59.93
2023-04-15T09:16:04.530Z,61.25
2023-04-15T09:19:27.959Z,61.91
2023-04-15T09:22:33.741Z,60.47
2023-04-15T09:25:36.649Z,60.57
2023-04-15T09:28:43.591Z,59.89
2023-04-15T09:31:47.089Z,59.29
2023-04-15T09:34:49.821Z,57.95
2023-04-15T09:37:53.589Z,56.88
2023-04-15T09:40:56.192Z,58.05
2023-04-15T09:43:58.847Z,59.53
2023-04-15T09:47:02.030Z,56.89
2023-04-15T09:50:04.883Z,56.86
2023-04-15T09:53:09.992Z,56.34
2023-04-15T09:56:12.895Z,57.86
2023-04-15T09:59:15.712Z,56.50
2023-04-15T10:02:21.130Z,55.80
2023-04-15T10:05:24.096Z,54.67
2023-04-15T10:08:29.839Z,54.72
2023-04-15T10:11:34.325Z,55.82
2023-04-15T10:14:38.965Z,57.42
2023-04-15T10:17:45.430Z,57.56
2023-04-15T10:20:50.557Z,57.36
2023-04-15T10:23:54.253Z,57.11
2023-04-15T10:26:59.751Z,55.54
2023-04-15T10:30:04.234Z,55.93
2023-04-15T10:33:10.339Z,55.16
2023-04-15T10:36:14.148Z,56.31
2023-04-15T10:39:34.755Z,55.46
2023-04-15T10:42:37.821Z,55.69
2023-04-15T10:45:45.028Z,55.15
2023-04-15T10:48:49.893Z,57.41
2023-04-15T10:51:57.478Z,59.58
2023-04-15T10:55:24.518Z,60.15
2023-04-15T10:58:42.357Z,59.69
2023-04-15T11:02:00.262Z,58.51
2023-04-15T11:05:03.891Z,58.50
2023-04-15T11:08:06.755Z,59.80
2023-04-15T11:11:09.319Z,58.51
2023-04-15T11:14:16.341Z,57.27
2023-04-15T11:17:28.880Z,56.65
2023-04-15T11:20:32.519Z,56.35
2023-04-15T11:23:49.643Z,57.11
2023-04-15T11:26:57.711Z,59.07
2023-04-15T11:30:00.369Z,61.54
2023-04-15T11:33:05.941Z,61.81
2023-04-15T11:36:08.408Z,63.53
2023-04-15T11:39:11.100Z,64.08
2023-04-15T11:42:18.439Z,61.85
2023-04-15T11:45:21.268Z,62.61
2023-04-15T11:48:27.612Z,62.89
2023-04-15T11:51:34.050Z,62.71
2023-04-15T11:54:37.580Z,63.00
2023-04-15T11:57:40.163Z,59.78
2023-04-15T12:00:57.759Z,57.79
2023-04-15T12:04:01.800Z,58.50
2023-04-15T12:07:07.728Z,58.90
2023-04-15T12:10:10.675Z,57.70
2023-04-15T12:13:13.395Z,55.36
2023-04-15T12:16:20.086Z,56.07
2023-04-15T12:19:24.777Z,56.11
2023-04-15T12:22:27.333Z,56.44
2023-04-15T12:25:35.974Z,56.20
2023-04-15T12:28:41.786Z,54.53
2023-04-15T12:31:52.273Z,54.20
2023-04-15T12:34:55.375Z,51.06
2023-04-15T12:37:57.868Z,51.48
2023-04-15T12:41:00.475Z,52.15
2023-04-15T12:44:04.139Z,53.22
2023-04-15T12:47:07.916Z,54.06
2023-04-15T12:50:10.733Z,53.02
2023-04-15T12:53:13.881Z,54.36
2023-04-15T12:56:17.565Z,55.03
2023-04-15T12:59:21.243Z,57.97
2023-04-15T13:02:25.898Z,58.61
2023-04-15T13:05:28.493Z,58.66
2023-04-15T13:08:31.558Z,57.78
2023-04-15T13:11:34.352Z,57.97
2023-04-15T13:14:37.268Z,59.33
2023-04-15T13:17:39.890Z,58.77
2023-04-15T13:20:42.526Z,58.75
2023-04-15T13:23:45.050Z,58.46
2023-04-15T13:26:50.366Z,57.63
2023-04-15T13:29:54.594Z,57.38
2023-04-15T13:32:57.243Z,55.38
2023-04-15T13:35:59.775Z,53.54
2023-04-15T13:39:03.280Z,54.65
2023-04-15T13:42:06.064Z,55.05
2023-04-15T13:45:09.939Z,55.97
2023-04-15T13:48:12.474Z,57.20
2023-04-15T13:51:14.975Z,56.75
2023-04-15T13:54:17.528Z,56.40
2023-04-15T13:57:20.147Z,55.69
2023-04-15T14:00:22.823Z,55.56
2023-04-15T14:03:26.458Z,57.03
2023-04-15T14:06:31.703Z,58.08
2023-04-15T14:09:35.558Z,59.51
2023-04-15T14:12:38.403Z,60.76
2023-04-15T14:15:41.727Z,60.34
2023-04-15T14:18:44.824Z,60.59
2023-04-15T14:21:47.595Z,61.31
2023-04-15T14:24:53.156Z,61.91
2023-04-15T14:27:55.903Z,60.30
2023-04-15T14:30:58.918Z,60.84
2023-04-15T14:34:01.610Z,61.25
2023-04-15T14:37:05.121Z,62.01
2023-04-15T14:40:08.402Z,62.71
2023-04-15T14:43:11.381Z,63.64
2023-04-15T14:46:14.652Z,63.51
2023-04-15T14:49:17.249Z,64.30
2023-04-15T14:52:20.014Z,65.07
2023-04-15T14:55:22.862Z,64.48
2023-04-15T14:58:25.496Z,64.56
2023-04-15T15:01:28.412Z,64.72
2023-04-15T15:04:33.483Z,64.09
2023-04-15T15:07:40.918Z,63.83
2023-04-15T15:10:49.339Z,64.87
2023-04-15T15:13:52.336Z,65.36
2023-04-15T15:16:54.915Z,64.56
2023-04-15T15:19:57.683Z,64.88
2023-04-15T15:23:00.954Z,65.74
2023-04-15T15:26:03.486Z,65.26
2023-04-15T15:29:06.357Z,65.43
2023-04-15T15:32:09.405Z,65.41
2023-04-15T15:35:11.851Z,66.29
2023-04-15T15:38:15.052Z,65.96
2023-04-15T15:41:17.750Z,66.16
2023-04-15T15:44:20.237Z,66.78
2023-04-15T15:47:23.184Z,66.12
2023-04-15T15:50:25.880Z,66.49
2023-04-15T15:53:28.670Z,66.55
2023-04-15T15:56:31.455Z,65.83
2023-04-15T15:59:34.448Z,65.04
2023-04-15T16:03:04.303Z,64.74
2023-04-15T16:06:00.198Z,64.04
2023-04-15T16:09:03.278Z,63.58
2023-04-15T16:12:06.074Z,63.49
2023-04-15T16:15:10.879Z,67.04
2023-04-15T16:18:13.428Z,69.40
2023-04-15T16:21:16.128Z,69.73
2023-04-15T16:24:18.953Z,70.39
2023-04-15T16:27:21.418Z,71.37
2023-04-15T16:30:24.243Z,71.42
2023-04-15T16:33:26.860Z,71.27
2023-04-15T16:36:29.517Z,72.30
2023-04-15T16:39:32.498Z,73.11
2023-04-15T16:42:35.023Z,73.43
2023-04-15T16:45:38.213Z,74.65
2023-04-15T16:48:40.712Z,74.43
2023-04-15T16:51:43.454Z,77.09
2023-04-15T16:54:46.093Z,75.87
2023-04-15T16:58:02.473Z,77.44
2023-04-15T17:01:06.378Z,76.79
2023-04-15T17:04:09.256Z,78.32
2023-04-15T17:07:12.093Z,78.59
2023-04-15T17:10:14.700Z,78.73
2023-04-15T17:13:17.377Z,79.72
2023-04-15T17:16:20.276Z,79.39
2023-04-15T17:19:23.254Z,81.27
2023-04-15T17:22:26.058Z,80.32
2023-04-15T17:25:28.514Z,81.55
2023-04-15T17:28:31.161Z,82.28
2023-04-15T17:31:33.883Z,83.05
2023-04-15T17:34:50.191Z,83.75
2023-04-15T17:37:53.775Z,84.54
2023-04-15T17:40:56.266Z,84.71
2023-04-15T17:43:59.001Z,85.04
2023-04-15T17:47:02.471Z,84.58
2023-04-15T17:50:05.840Z,85.74
2023-04-15T17:53:09.129Z,85.96
2023-04-15T17:56:11.886Z,86.72
2023-04-15T17:59:16.579Z,86.44
2023-04-15T18:02:19.583Z,87.32
2023-04-15T18:05:22.337Z,87.78
2023-04-15T18:08:25.302Z,88.54
2023-04-15T18:11:28.197Z,89.35
2023-04-15T18:14:34.659Z,88.95
2023-04-15T18:17:38.027Z,89.10
2023-04-15T18:20:40.599Z,89.48
2023-04-15T18:23:44.019Z,89.90
2023-04-15T18:26:48.858Z,90.69
2023-04-15T18:29:52.072Z,90.44
2023-04-15T18:32:54.763Z,90.70
2023-04-15T18:35:57.737Z,91.03
2023-04-15T18:39:00.481Z,91.13
2023-04-15T18:42:03.476Z,91.47
2023-04-15T18:45:07.738Z,91.32
2023-04-15T18:48:10.412Z,91.93
2023-04-15T18:51:13.121Z,92.38
2023-04-15T18:54:16.626Z,91.80
2023-04-15T18:57:23.316Z,92.05
2023-04-15T19:00:36.463Z,92.58
2023-04-15T19:03:39.725Z,92.25
2023-04-15T19:06:42.870Z,92.57
2023-04-15T19:09:46.714Z,92.59
2023-04-15T19:12:49.537Z,92.01
2023-04-15T19:15:52.640Z,91.79
2023-04-15T19:18:55.565Z,91.80
2023-04-15T19:21:58.236Z,91.92
2023-04-15T19:25:01.225Z,91.90
2023-04-15T19:28:04.137Z,91.96
2023-04-15T19:31:07.832Z,92.71
2023-04-15T19:34:11.206Z,92.13
2023-04-15T19:37:16.362Z,91.82
2023-04-15T19:40:19.264Z,92.40
2023-04-15T19:43:22.930Z,92.84
2023-04-15T19:46:26.949Z,92.82
2023-04-15T19:49:30.435Z,93.07
2023-04-15T19:52:34.449Z,92.61
2023-04-15T19:55:37.376Z,92.34
2023-04-15T19:58:40.857Z,92.41
2023-04-15T20:01:43.489Z,92.66
2023-04-15T20:04:46.396Z,92.14
2023-04-15T20:07:52.346Z,92.22
2023-04-15T20:10:56.868Z,92.71
2023-04-15T20:13:59.607Z,92.95
2023-04-15T20:17:02.544Z,93.37
2023-04-15T20:20:07.961Z,93.06
2023-04-15T20:23:11.347Z,92.96
2023-04-15T20:26:13.866Z,92.84
2023-04-15T20:29:16.576Z,93.04
2023-04-15T20:32:19.268Z,93.37
2023-04-15T20:35:22.190Z,92.87
2023-04-15T20:38:25.021Z,92.79
2023-04-15T20:41:29.128Z,91.97
2023-04-15T20:44:32.001Z,92.36
2023-04-15T20:47:34.707Z,92.22
2023-04-15T20:50:38.974Z,91.65
2023-04-15T20:53:42.330Z,91.24
2023-04-15T20:56:44.948Z,91.07
2023-04-15T20:59:47.864Z,90.92
2023-04-15T21:02:51.185Z,91.24
2023-04-15T21:05:53.747Z,91.12
2023-04-15T21:08:56.880Z,91.51
2023-04-15T21:12:01.550Z,91.08
2023-04-15T21:15:05.446Z,91.38
2023-04-15T21:18:08.008Z,91.84
2023-04-15T21:21:11.675Z,91.82
2023-04-15T21:24:14.323Z,91.42
2023-04-15T21:27:16.740Z,91.51
2023-04-15T21:30:19.339Z,91.21
2023-04-15T21:33:21.993Z,92.05
2023-04-15T21:36:24.556Z,91.65
2023-04-15T21:39:30.430Z,91.05
2023-04-15T21:42:32.975Z,91.43
2023-04-15T21:45:36.640Z,91.29
2023-04-15T21:48:39.383Z,91.83
2023-04-15T21:51:41.998Z,91.82
2023-04-15T21:54:44.570Z,92.15
2023-04-15T21:57:48.358Z,92.04
2023-04-15T22:00:52.441Z,92.59
2023-04-15T22:03:55.260Z,92.65
2023-04-15T22:07:01.730Z,92.56
2023-04-15T22:10:04.787Z,92.51
2023-04-15T22:13:11.096Z,91.39
2023-04-15T22:16:13.633Z,91.28
2023-04-15T22:19:16.175Z,91.52
2023-04-15T22:22:19.045Z,91.24
2023-04-15T22:25:22.546Z,91.68
2023-04-15T22:28:25.552Z,91.72
2023-04-15T22:31:28.195Z,91.76
2023-04-15T22:34:31.014Z,91.21
2023-04-15T22:37:33.598Z,91.42
2023-04-15T22:40:36.123Z,92.22
2023-04-15T22:43:38.606Z,92.71
2023-04-15T22:46:41.332Z,92.63
2023-04-15T22:49:44.973Z,92.49
2023-04-15T22:52:48.360Z,92.69
2023-04-15T22:55:51.765Z,92.96
2023-04-15T22:58:54.526Z,92.71
2023-04-15T23:01:59.472Z,92.41
2023-04-15T23:05:06.291Z,93.09
2023-04-15T23:08:15.448Z,92.39
2023-04-15T23:11:18.553Z,92.73
2023-04-15T23:14:21.450Z,92.28
2023-04-15T23:17:24.013Z,92.32
2023-04-15T23:20:26.559Z,91.86
2023-04-15T23:23:29.048Z,91.70
2023-04-15T23:26:31.738Z,92.09
2023-04-15T23:29:34.254Z,92.49
2023-04-15T23:32:36.894Z,92.41
2023-04-15T23:35:39.843Z,91.93
2023-04-15T23:38:42.412Z,91.95
2023-04-15T23:41:44.996Z,92.53
2023-04-15T23:44:47.597Z,92.35
2023-04-15T23:47:50.140Z,92.65
2023-04-15T23:50:52.663Z,92.37
2023-04-15T23:53:55.215Z,92.07
2023-04-15T23:56:57.703Z,92.28
